Time;durP1;ratioP1;P1;durP2;ratioP2;P2;SDS_P1;SDS_P2;PMS_P1;PMS_P2;Temp;Humidity;BMP_temperature;BMP_pressure;BME280_temperature;BME280_humidity;BME280_pressure;Samples;Min_cycle;Max_cycle;Signal;HPM_P1;HPM_P2
2023/01/20 00:01:48;;;;;;;63.25;23.40;;;0.50;99.90;;;-1.41;100.00;100383.63;4891643;28;20603;-76
2023/01/20 00:04:14;;;;;;;56.95;24.77;;;0.50;99.90;;;-1.47;100.00;100394.88;4865152;29;20236;-76
2023/01/20 00:06:40;;;;;;;58.08;24.45;;;0.40;99.90;;;-1.48;100.00;100392.28;4885725;29;20032;-76
2023/01/20 00:09:13;;;;;;;65.63;24.60;;;0.30;99.90;;;-1.50;100.00;100394.00;4847526;28;20039;-77
2023/01/20 00:11:39;;;;;;;60.03;24.20;;;0.30;99.90;;;-1.53;100.00;100397.47;4864942;29;20032;-78
2023/01/20 00:14:05;;;;;;;68.65;26.60;;;0.30;99.90;;;-1.56;100.00;100399.19;4904652;29;20118;-76
2023/01/20 00:16:40;;;;;;;66.93;24.85;;;0.20;99.90;;;-1.63;100.00;100400.91;4878218;28;20133;-77
2023/01/20 00:19:06;;;;;;;71.50;25.00;;;0.10;99.90;;;-1.71;100.00;100405.22;4863067;29;20059;-76
2023/01/20 00:21:33;;;;;;;64.10;24.25;;;0.10;99.90;;;-1.78;100.00;100413.84;4839939;29;20040;-77
2023/01/20 00:24:05;;;;;;;68.47;26.42;;;0.00;99.90;;;-1.82;100.00;100412.13;4882815;28;20084;-77
2023/01/20 00:26:30;;;;;;;63.03;24.35;;;0.00;99.90;;;-1.88;100.00;100420.72;4888220;28;20091;-78
2023/01/20 00:28:56;;;;;;;63.47;26.45;;;-0.10;99.90;;;-1.93;100.00;100425.91;4875572;28;20051;-77
2023/01/20 00:31:36;;;;;;;73.00;25.00;;;-0.10;99.90;;;-1.93;100.00;100431.06;4863707;29;20424;-85
2023/01/20 00:34:03;;;;;;;76.55;26.52;;;-0.10;99.90;;;-1.97;100.00;100434.50;4846935;29;20068;-78
2023/01/20 00:36:34;;;;;;;68.38;26.55;;;-0.20;99.90;;;-1.99;100.00;100435.38;4860570;29;20528;-78
2023/01/20 00:39:01;;;;;;;75.95;27.15;;;-0.20;99.90;;;-2.03;100.00;100442.25;4859059;29;20047;-78
2023/01/20 00:41:27;;;;;;;83.85;27.10;;;-0.20;99.90;;;-2.04;100.00;100440.53;4873824;28;20051;-77
2023/01/20 00:43:53;;;;;;;83.93;27.30;;;-0.20;99.90;;;-2.06;100.00;100447.41;4889730;28;20113;-76
2023/01/20 00:46:21;;;;;;;75.53;26.58;;;-0.20;99.90;;;-2.07;100.00;100450.84;4848236;28;20040;-77
2023/01/20 00:48:49;;;;;;;78.57;27.42;;;-0.30;99.90;;;-2.09;100.00;100457.75;4868033;29;20044;-77
2023/01/20 00:51:18;;;;;;;77.65;27.00;;;-0.30;99.90;;;-2.11;100.00;100454.28;4853405;29;20130;-77
2023/01/20 00:53:44;;;;;;;77.43;27.23;;;-0.30;99.90;;;-2.16;100.00;100461.16;4887588;28;20055;-76
2023/01/20 00:56:10;;;;;;;87.22;27.67;;;-0.30;99.90;;;-2.17;100.00;100465.44;4880103;28;20036;-77
2023/01/20 00:58:36;;;;;;;95.03;28.85;;;-0.30;99.90;;;-2.21;100.00;100468.88;4869802;28;20048;-76
2023/01/20 01:01:02;;;;;;;73.78;26.90;;;-0.40;99.90;;;-2.23;100.00;100465.44;4867691;28;20032;-77
2023/01/20 01:03:33;;;;;;;80.13;27.55;;;-0.40;99.90;;;-2.24;100.00;100474.06;4859089;28;20071;-77
2023/01/20 01:06:14;;;;;;;80.72;26.00;;;-0.40;99.90;;;-2.29;100.00;100471.47;4866432;28;20057;-76
2023/01/20 01:08:41;;;;;;;77.47;25.67;;;-0.50;99.90;;;-2.33;100.00;100468.88;4894705;29;20126;-77
2023/01/20 01:11:08;;;;;;;82.45;27.10;;;-0.50;99.90;;;-2.33;100.00;100474.91;4876937;28;20055;-76
2023/01/20 01:13:42;;;;;;;84.78;28.13;;;-0.50;99.90;;;-2.37;100.00;100475.75;4886811;28;20557;-76
2023/01/20 01:16:13;;;;;;;91.95;30.02;;;-0.60;99.90;;;-2.40;100.00;100475.72;4888442;28;20122;-76
2023/01/20 01:18:46;;;;;;;94.18;28.70;;;-0.60;99.90;;;-2.41;100.00;100481.75;4868530;29;20408;-77
2023/01/20 01:21:15;;;;;;;100.05;28.67;;;-0.60;99.90;;;-2.43;100.00;100470.56;4876809;28;20122;-76
2023/01/20 01:23:42;;;;;;;95.80;29.63;;;-0.60;99.90;;;-2.44;100.00;100483.44;4879961;28;20433;-77
2023/01/20 01:26:15;;;;;;;113.80;28.95;;;-0.70;99.90;;;-2.44;100.00;100475.72;4893293;28;20523;-76
2023/01/20 01:28:41;;;;;;;110.90;29.95;;;-0.60;99.90;;;-2.44;100.00;100481.75;4872280;28;20554;-76
2023/01/20 01:31:07;;;;;;;89.40;29.08;;;-0.60;99.90;;;-2.43;100.00;100478.31;4869149;28;20614;-77
2023/01/20 01:33:34;;;;;;;102.65;30.67;;;-0.60;99.90;;;-2.40;100.00;100480.88;4881544;29;20043;-76
2023/01/20 01:36:11;;;;;;;104.55;29.55;;;-0.60;99.90;;;-2.38;100.00;100486.03;4887575;28;20411;-76
2023/01/20 01:38:37;;;;;;;93.82;29.23;;;-0.50;99.90;;;-2.38;100.00;100480.88;4889447;28;20051;-76
2023/01/20 01:41:08;;;;;;;94.30;29.48;;;-0.50;99.90;;;-2.38;100.00;100484.31;4862114;28;20043;-76
2023/01/20 01:43:36;;;;;;;106.63;29.15;;;-0.50;99.90;;;-2.38;100.00;100492.06;4909780;28;20071;-76
2023/01/20 01:46:03;;;;;;;100.72;29.20;;;-0.50;99.90;;;-2.37;100.00;100496.38;4869396;29;20047;-76
2023/01/20 01:48:37;;;;;;;97.88;28.17;;;-0.50;99.90;;;-2.35;100.00;100497.25;4893415;28;20099;-76
2023/01/20 01:51:27;;;;;;;116.03;29.95;;;-0.50;99.90;;;-2.38;100.00;100504.94;4877451;29;20150;-76
2023/01/20 01:54:12;;;;;;;106.85;28.85;;;-0.60;99.90;;;-2.40;100.00;100501.50;4891471;28;20845;-76
2023/01/20 01:56:41;;;;;;;102.32;27.85;;;-0.60;99.90;;;-2.46;100.00;100496.34;4871854;28;20043;-76
2023/01/20 01:59:08;;;;;;;88.35;28.40;;;-0.60;99.90;;;-2.50;100.00;100503.22;4878100;29;20071;-76
2023/01/20 02:01:42;;;;;;;114.65;30.13;;;-0.70;99.90;;;-2.54;100.00;100504.06;4908470;28;20040;-76
2023/01/20 02:04:23;;;;;;;90.20;27.52;;;-0.70;99.90;;;-2.55;100.00;100509.19;4880266;29;20033;-79
2023/01/20 02:07:00;;;;;;;101.90;28.85;;;-0.70;99.90;;;-2.57;100.00;100506.63;4876849;28;20075;-77
2023/01/20 02:09:27;;;;;;;97.13;27.40;;;-0.80;99.90;;;-2.60;100.00;100510.91;4887106;28;20048;-76
2023/01/20 02:11:59;;;;;;;104.13;28.90;;;-0.70;99.90;;;-2.63;100.00;100509.19;4903130;28;20036;-76
2023/01/20 02:14:41;;;;;;;100.03;27.95;;;-0.80;99.90;;;-2.64;100.00;100512.59;4884033;28;20040;-77
2023/01/20 02:17:32;;;;;;;99.07;28.48;;;-0.80;99.90;;;-2.66;100.00;100514.31;4879471;28;20130;-77
2023/01/20 02:20:41;;;;;;;86.13;25.73;;;-0.80;99.90;;;-2.70;100.00;100518.63;4893445;29;20065;-77
2023/01/20 02:23:33;;;;;;;98.88;27.08;;;-0.90;99.90;;;-2.75;100.00;100514.28;4905944;28;20047;-77
2023/01/20 02:26:17;;;;;;;101.78;28.88;;;-0.90;99.90;;;-2.77;100.00;100518.56;4895127;28;20519;-76
2023/01/20 02:29:26;;;;;;;100.07;28.48;;;-0.90;99.90;;;-2.78;100.00;100520.28;4878356;28;20127;-76
2023/01/20 02:32:34;;;;;;;95.30;27.95;;;-0.90;99.90;;;-2.74;100.00;100524.59;4909931;28;20067;-76
2023/01/20 02:35:18;;;;;;;113.53;28.23;;;-0.90;99.90;;;-2.72;100.00;100525.47;4887598;28;20190;-76
2023/01/20 02:38:25;;;;;;;101.60;29.52;;;-0.90;99.90;;;-2.65;100.00;100530.66;4886939;29;20073;-76
2023/01/20 02:41:11;;;;;;;115.73;29.77;;;-0.80;99.90;;;-2.65;100.00;100525.50;4854155;29;20052;-76
2023/01/20 02:44:13;;;;;;;114.43;28.92;;;-0.80;99.90;;;-2.67;100.00;100519.47;4869474;29;20052;-76
2023/01/20 02:47:00;;;;;;;113.13;28.13;;;-0.80;99.90;;;-2.66;100.00;100528.91;4926123;28;20134;-76
2023/01/20 02:49:37;;;;;;;102.57;28.38;;;-0.80;99.90;;;-2.69;100.00;100525.47;4884268;28;20056;-75
2023/01/20 02:52:23;;;;;;;100.78;27.52;;;-0.80;99.90;;;-2.72;100.00;100538.38;4896064;28;20027;-76
2023/01/20 02:54:51;;;;;;;;;;;-0.80;99.90;;;-2.73;100.00;100546.94;4852095;29;20114;-78
2023/01/20 02:57:28;;;;;;;95.43;26.65;;;-0.90;99.90;;;-2.69;100.00;100551.25;4859676;28;19915;-78
2023/01/20 03:00:06;;;;;;;100.25;28.60;;;-0.80;99.90;;;-2.61;100.00;100551.31;4883238;29;20058;-78
2023/01/20 03:02:35;;;;;;;114.43;29.30;;;-0.70;99.90;;;-2.50;100.00;100546.19;4879756;29;20078;-77
2023/01/20 03:05:13;;;;;;;110.68;30.08;;;-0.70;99.90;;;-2.38;100.00;100548.78;4863744;29;20032;-79
2023/01/20 03:07:41;;;;;;;91.05;26.75;;;-0.60;99.90;;;-2.33;100.00;100552.25;4860954;28;20056;-78
2023/01/20 03:10:14;;;;;;;95.78;28.65;;;-0.50;99.90;;;-2.27;100.00;100547.13;4860245;28;20043;-78
2023/01/20 03:12:55;;;;;;;99.40;29.13;;;-0.40;99.90;;;-2.18;100.00;100550.56;4912913;28;20067;-78
2023/01/20 03:15:32;;;;;;;101.38;28.95;;;-0.40;99.90;;;-2.11;100.00;100557.47;4891687;28;20552;-78
2023/01/20 03:17:58;;;;;;;101.30;28.83;;;-0.30;99.90;;;-2.04;100.00;100560.94;4909303;28;20035;-77
2023/01/20 03:20:24;;;;;;;103.18;28.58;;;-0.20;99.90;;;-1.97;100.00;100570.41;4907639;28;20056;-78
2023/01/20 03:22:50;;;;;;;96.05;28.92;;;-0.20;99.90;;;-1.98;100.00;100564.38;4878792;28;20031;-76
2023/01/20 03:25:18;;;;;;;100.78;26.92;;;-0.20;99.90;;;-1.99;100.00;100567.81;4877301;28;20038;-75
2023/01/20 03:27:51;;;;;;;102.03;27.45;;;-0.20;99.90;;;-2.01;100.00;100563.50;4885541;28;20047;-76
2023/01/20 03:30:17;;;;;;;99.20;28.00;;;-0.20;99.90;;;-2.08;100.00;100565.22;4897327;28;20055;-77
2023/01/20 03:32:47;;;;;;;93.55;27.02;;;-0.30;99.90;;;-2.14;100.00;100566.09;4880905;29;20043;-77
2023/01/20 03:35:18;;;;;;;82.72;26.23;;;-0.30;99.90;;;-2.18;100.00;100571.19;4871520;28;20099;-76
2023/01/20 03:37:44;;;;;;;102.05;27.42;;;-0.40;99.90;;;-2.22;100.00;100570.34;4883183;28;20041;-77
2023/01/20 03:40:12;;;;;;;86.18;26.77;;;-0.40;99.90;;;-2.32;100.00;100572.03;4900538;28;20044;-77
2023/01/20 03:42:53;;;;;;;106.07;28.17;;;-0.50;99.90;;;-2.36;100.00;100574.59;4905182;28;20036;-77
2023/01/20 03:46:06;;;;;;;95.35;25.77;;;-0.50;99.90;;;-2.38;100.00;100579.72;4875587;29;20058;-77
2023/01/20 03:48:44;;;;;;;94.85;26.42;;;-0.60;99.90;;;-2.44;100.00;100576.28;4839944;29;20520;-76
2023/01/20 03:51:39;;;;;;;84.63;24.83;;;-0.70;99.90;;;-2.50;100.00;100582.28;4871777;28;20047;-75
2023/01/20 03:54:14;;;;;;;85.78;25.38;;;-0.70;99.90;;;-2.57;100.00;100589.13;4879495;28;20432;-77
2023/01/20 03:56:50;;;;;;;92.82;26.40;;;-0.80;99.90;;;-2.61;100.00;100586.50;4916225;28;20092;-77
2023/01/20 03:59:19;;;;;;;;;;;-0.80;99.90;;;-2.70;100.00;100592.47;4886028;28;20090;-76
2023/01/20 04:01:45;;;;;;;93.10;26.08;;;-0.90;99.90;;;-2.75;100.00;100595.03;4863309;29;19915;-77
2023/01/20 04:04:16;;;;;;;99.13;26.98;;;-0.90;99.90;;;-2.79;100.00;100601.00;4868481;29;20138;-77
2023/01/20 04:06:48;;;;;;;100.57;27.67;;;-0.90;99.90;;;-2.78;100.00;100607.91;4919672;29;20040;-76
2023/01/20 04:09:24;;;;;;;102.05;27.67;;;-0.90;99.90;;;-2.69;100.00;100618.25;4877876;29;20035;-77
2023/01/20 04:11:50;;;;;;;102.05;26.95;;;-0.80;99.90;;;-2.63;100.00;100619.19;4882244;29;20042;-77
2023/01/20 04:14:16;;;;;;;96.72;27.50;;;-0.70;99.90;;;-2.55;100.00;100627.78;4863577;29;20462;-76
2023/01/20 04:16:52;;;;;;;94.65;27.25;;;-0.70;99.90;;;-2.47;100.00;100636.44;4876094;29;20058;-77
2023/01/20 04:19:18;;;;;;;;;;;-0.60;99.90;;;-2.40;100.00;100648.50;4880277;29;20036;-77
2023/01/20 04:21:59;;;;;;;92.70;24.98;;;-0.60;99.90;;;-2.32;100.00;100646.81;4895777;28;19935;-77
2023/01/20 04:24:43;;;;;;;98.85;27.55;;;-0.50;99.90;;;-2.24;100.00;100661.50;4891100;29;20557;-76
2023/01/20 04:27:09;;;;;;;116.85;27.85;;;-0.40;99.90;;;-2.12;100.00;100664.97;4874772;28;20047;-77
2023/01/20 04:29:42;;;;;;;87.40;28.75;;;-0.30;99.90;;;-2.03;100.00;100669.31;4869713;29;20040;-77
2023/01/20 04:32:11;;;;;;;122.25;31.33;;;-0.20;99.90;;;-1.88;100.00;100664.22;4901084;28;20043;-77
2023/01/20 04:34:37;;;;;;;95.53;31.15;;;-0.10;99.90;;;-1.77;100.00;100671.09;4887129;28;20052;-76
2023/01/20 04:37:03;;;;;;;99.55;29.58;;;0.00;99.90;;;-1.69;100.00;100672.00;4877901;29;20040;-76
2023/01/20 04:39:36;;;;;;;108.38;29.48;;;0.10;99.90;;;-1.62;100.00;100685.78;4900206;28;20032;-76
2023/01/20 04:42:02;;;;;;;107.18;31.45;;;0.20;99.90;;;-1.56;100.00;100688.38;4869195;28;20510;-77
2023/01/20 04:44:28;;;;;;;98.25;28.98;;;0.20;99.90;;;-1.50;100.00;100690.97;4881294;29;20083;-76
2023/01/20 04:46:57;;;;;;;100.18;30.73;;;0.30;99.90;;;-1.43;100.00;100691.84;4894673;28;20066;-77
2023/01/20 04:49:25;;;;;;;96.57;29.25;;;0.40;99.90;;;-1.35;100.00;100695.31;4904246;28;20032;-76
2023/01/20 04:51:51;;;;;;;104.75;30.00;;;0.40;99.90;;;-1.32;100.00;100695.31;4876460;29;20079;-77
2023/01/20 04:54:17;;;;;;;94.53;28.48;;;0.50;99.90;;;-1.28;100.00;100694.47;4906111;28;20055;-76
2023/01/20 04:56:43;;;;;;;95.90;30.00;;;0.50;99.90;;;-1.21;100.00;100697.91;4861874;29;20520;-77
2023/01/20 04:59:09;;;;;;;88.35;28.70;;;0.60;99.90;;;-1.18;100.00;100700.53;4873856;28;20206;-77
2023/01/20 05:01:40;;;;;;;86.45;30.10;;;0.60;99.90;;;-1.14;100.00;100703.09;4884784;28;20036;-77
2023/01/20 05:04:06;;;;;;;87.13;29.25;;;0.70;99.90;;;-1.06;100.00;100711.72;4863545;29;20059;-76
2023/01/20 05:06:32;;;;;;;87.72;29.40;;;0.70;99.90;;;-1.04;100.00;100706.53;4874286;29;20111;-76
2023/01/20 05:08:57;;;;;;;86.47;28.90;;;0.70;99.90;;;-0.97;100.00;100708.28;4904126;28;20039;-76
2023/01/20 05:11:23;;;;;;;90.90;28.45;;;0.80;99.90;;;-0.96;100.00;100703.97;4869083;29;20090;-75
2023/01/20 05:13:49;;;;;;;81.13;30.08;;;0.80;99.90;;;-0.92;100.00;100706.56;4896337;28;20502;-77
2023/01/20 05:16:22;;;;;;;83.47;27.92;;;0.80;99.90;;;-0.89;100.00;100716.03;4892657;28;20055;-76
2023/01/20 05:18:49;;;;;;;76.07;26.83;;;0.90;99.90;;;-0.89;100.00;100713.44;4911373;28;20071;-76
2023/01/20 05:21:15;;;;;;;75.07;28.00;;;0.90;99.90;;;-0.85;100.00;100723.78;4918569;28;20040;-75
2023/01/20 05:23:40;;;;;;;83.15;28.30;;;0.90;99.90;;;-0.81;100.00;100732.41;4901699;28;20050;-76
2023/01/20 05:26:06;;;;;;;86.97;29.55;;;0.90;99.90;;;-0.79;100.00;100729.84;4892670;28;25787;-76
2023/01/20 05:28:33;;;;;;;75.32;27.63;;;1.00;99.90;;;-0.79;100.00;100729.84;4893723;28;20036;-76
2023/01/20 05:30:59;;;;;;;75.13;27.30;;;1.00;99.90;;;-0.79;100.00;100738.44;4879421;28;20118;-76
2023/01/20 05:33:24;;;;;;;71.13;25.98;;;1.00;99.90;;;-0.79;100.00;100746.19;4885216;28;20058;-76
2023/01/20 05:35:50;;;;;;;68.53;26.10;;;1.00;99.90;;;-0.75;100.00;100742.75;4906093;28;20076;-76
2023/01/20 05:38:16;;;;;;;65.38;25.60;;;1.10;99.90;;;-0.72;100.00;100747.06;4879945;29;20030;-76
2023/01/20 05:40:42;;;;;;;67.53;25.45;;;1.10;99.90;;;-0.68;100.00;100752.22;4886109;29;20128;-76
2023/01/20 05:43:08;;;;;;;65.13;26.05;;;1.10;99.90;;;-0.65;100.00;100753.94;4906427;28;20123;-77
2023/01/20 05:45:33;;;;;;;65.40;26.30;;;1.10;99.90;;;-0.59;100.00;100758.25;4852560;29;20052;-76
2023/01/20 05:48:00;;;;;;;64.30;25.02;;;1.10;99.90;;;-0.60;100.00;100759.09;4892214;28;20031;-77
2023/01/20 05:50:29;;;;;;;67.72;25.50;;;2.40;99.90;;;-0.60;100.00;100764.28;4902914;28;20035;-77
2023/01/20 05:52:55;;;;;;;59.33;23.58;;;1.20;99.90;;;-0.62;100.00;100767.75;4872328;28;20472;-76
2023/01/20 05:55:21;;;;;;;67.45;25.45;;;1.20;99.90;;;-0.57;100.00;100775.50;4894398;28;21182;-76
2023/01/20 05:57:46;;;;;;;56.80;22.70;;;1.20;99.90;;;-0.55;100.00;100778.94;4903924;28;20170;-76
2023/01/20 06:00:13;;;;;;;58.70;23.17;;;1.20;99.90;;;-0.53;100.00;100786.72;4888526;28;20040;-76
2023/01/20 06:02:43;;;;;;;66.63;23.52;;;1.30;99.90;;;-0.53;100.00;100785.00;4883611;29;20050;-76
2023/01/20 06:05:09;;;;;;;63.95;23.60;;;1.30;99.90;;;-0.46;100.00;100793.59;4878937;29;20095;-76
2023/01/20 06:07:35;;;;;;;67.63;23.92;;;1.30;99.90;;;-0.46;100.00;100802.22;4878519;28;20051;-76
2023/01/20 06:10:01;;;;;;;60.78;23.75;;;1.30;99.90;;;-0.44;100.00;100802.22;4889200;29;20032;-76
2023/01/20 06:12:27;;;;;;;58.67;22.92;;;1.30;99.90;;;-0.46;100.00;100811.72;4877105;29;20051;-76
2023/01/20 06:14:53;;;;;;;62.78;23.55;;;1.30;99.90;;;-0.44;100.00;100812.56;4896140;28;20040;-77
2023/01/20 06:17:25;;;;;;;65.28;23.33;;;1.30;99.90;;;-0.49;100.00;100815.16;4896361;28;20062;-76
2023/01/20 06:19:51;;;;;;;67.28;23.60;;;1.30;99.90;;;-0.46;100.00;100816.88;4879314;28;20117;-76
2023/01/20 06:22:19;;;;;;;62.28;22.98;;;1.30;99.90;;;-0.43;100.00;100822.94;4873783;28;20098;-77
2023/01/20 06:24:46;;;;;;;53.05;22.40;;;1.40;99.90;;;-0.43;100.00;100819.50;4849413;28;20047;-76
2023/01/20 06:27:14;;;;;;;66.85;24.30;;;1.30;99.90;;;-0.40;100.00;100823.81;4888685;28;20119;-76
2023/01/20 06:29:42;;;;;;;53.78;23.00;;;1.40;99.90;;;-0.34;100.00;100826.38;4883523;28;20421;-76
2023/01/20 06:32:08;;;;;;;51.45;22.08;;;1.40;99.90;;;-0.37;100.00;100834.13;4913584;28;20045;-76
2023/01/20 06:34:35;;;;;;;58.80;21.42;;;1.40;99.90;;;-0.40;100.00;100845.34;4887464;28;20062;-77
2023/01/20 06:37:01;;;;;;;69.15;24.00;;;1.40;99.90;;;-0.36;100.00;100841.91;4909756;28;20040;-77
2023/01/20 06:39:32;;;;;;;61.30;21.65;;;1.40;99.90;;;-0.37;100.00;100840.16;4872480;29;20071;-76
2023/01/20 06:41:59;;;;;;;58.80;22.02;;;1.40;99.90;;;-0.38;100.00;100846.22;4857520;29;20039;-75
2023/01/20 06:44:25;;;;;;;46.60;20.88;;;1.30;99.90;;;-0.38;100.00;100853.13;4872726;29;20035;-77
2023/01/20 06:46:51;;;;;;;58.88;22.20;;;1.40;99.90;;;-0.37;100.00;100855.69;4907016;28;20042;-77
2023/01/20 06:49:18;;;;;;;57.50;21.35;;;1.40;99.90;;;-0.41;100.00;100861.75;4889182;29;20101;-77
2023/01/20 06:51:51;;;;;;;47.72;21.25;;;1.40;99.90;;;-0.39;100.00;100870.34;4873116;28;20695;-76
2023/01/20 06:54:17;;;;;;;54.85;21.63;;;1.40;99.90;;;-0.37;100.00;100873.81;4863084;28;20036;-77
2023/01/20 06:56:43;;;;;;;61.22;22.08;;;1.40;99.90;;;-0.35;100.00;100874.66;4862657;28;20046;-77
2023/01/20 06:59:13;;;;;;;56.92;22.65;;;1.40;99.90;;;-0.41;100.00;100877.28;4859984;29;20033;-76
2023/01/20 07:01:42;;;;;;;64.32;23.42;;;1.40;99.90;;;-0.38;100.00;100889.34;4886472;28;20035;-76
2023/01/20 07:04:12;;;;;;;52.28;23.83;;;1.40;99.90;;;-0.37;100.00;100885.88;4853497;28;20040;-77
2023/01/20 07:06:45;;;;;;;61.97;23.63;;;1.40;99.90;;;-0.39;100.00;100897.94;4925273;28;20097;-76
2023/01/20 07:09:12;;;;;;;61.63;21.77;;;1.40;99.90;;;-0.36;100.00;100900.56;4880088;29;20023;-77
2023/01/20 07:11:38;;;;;;;53.45;22.83;;;1.40;99.90;;;-0.36;100.00;100904.00;4878430;29;20031;-77
2023/01/20 07:14:05;;;;;;;60.75;25.90;;;1.40;99.90;;;-0.32;100.00;100907.47;4887270;28;20130;-77
2023/01/20 07:16:32;;;;;;;68.82;27.50;;;1.40;99.90;;;-0.30;100.00;100914.38;4914298;28;20051;-76
2023/01/20 07:18:58;;;;;;;66.10;26.33;;;1.40;99.90;;;-0.33;100.00;100916.06;4899825;29;20082;-76
2023/01/20 07:21:24;;;;;;;68.60;26.25;;;1.40;99.90;;;-0.31;100.00;100912.63;4906797;28;20039;-76
2023/01/20 07:23:50;;;;;;;65.97;25.52;;;1.40;99.90;;;-0.25;100.00;100927.31;4878456;29;20035;-77
2023/01/20 07:26:20;;;;;;;61.45;23.52;;;1.40;99.90;;;-0.26;100.00;100923.88;4880524;28;20044;-77
2023/01/20 07:28:47;;;;;;;73.95;27.10;;;1.50;99.90;;;-0.25;100.00;100928.16;4902965;28;20030;-77
2023/01/20 07:31:18;;;;;;;54.30;23.77;;;1.50;99.90;;;-0.28;100.00;100935.03;4878782;28;20036;-76
2023/01/20 07:33:44;;;;;;;60.95;23.50;;;1.50;99.90;;;-0.34;100.00;100937.66;4862864;28;20043;-76
2023/01/20 07:36:12;;;;;;;52.00;21.27;;;1.40;99.90;;;-0.30;100.00;100944.53;4895227;28;20530;-76
2023/01/20 07:38:38;;;;;;;54.15;23.50;;;1.40;99.90;;;-0.30;100.00;100942.84;4886136;29;20036;-76
2023/01/20 07:41:09;;;;;;;58.35;23.05;;;1.50;99.90;;;-0.30;100.00;100944.53;4890005;28;20036;-76
2023/01/20 07:43:35;;;;;;;51.42;22.65;;;1.50;99.90;;;-0.29;100.00;100949.72;4901561;28;20052;-75
2023/01/20 07:46:03;;;;;;;50.72;22.42;;;1.50;99.90;;;-0.28;100.00;100954.03;4861310;29;20548;-76
2023/01/20 07:48:35;;;;;;;57.38;22.75;;;1.50;99.90;;;-0.28;100.00;100959.22;4867941;28;20600;-78
2023/01/20 07:51:04;;;;;;;56.33;23.52;;;1.50;99.90;;;-0.26;100.00;100967.84;4851300;29;20119;-76
2023/01/20 07:53:35;;;;;;;49.17;22.30;;;1.50;99.90;;;-0.18;100.00;100980.78;4901663;28;20067;-77
2023/01/20 07:56:10;;;;;;;52.42;22.85;;;1.50;99.90;;;-0.21;100.00;100986.84;4877246;28;20383;-76
2023/01/20 07:58:37;;;;;;;52.22;21.38;;;1.50;99.90;;;-0.14;100.00;100999.78;4896121;28;20047;-77
2023/01/20 08:01:14;;;;;;;56.97;23.50;;;1.60;99.90;;;-0.14;100.00;101010.13;4887085;28;20039;-76
2023/01/20 08:03:42;;;;;;;59.10;22.77;;;1.60;99.90;;;-0.16;100.00;101007.53;4873321;28;20048;-77
2023/01/20 08:06:13;;;;;;;57.45;22.40;;;1.60;99.90;;;-0.11;100.00;101013.59;4875762;29;20040;-77
2023/01/20 08:08:39;;;;;;;52.58;22.02;;;1.60;99.90;;;-0.07;100.00;101015.31;4900357;28;20059;-77
2023/01/20 08:11:06;;;;;;;54.83;23.05;;;1.60;99.90;;;-0.08;100.00;101023.97;4886368;29;20043;-77
2023/01/20 08:13:33;;;;;;;53.80;21.65;;;1.60;99.90;;;-0.03;100.00;101030.00;4859262;29;20040;-77
2023/01/20 08:16:04;;;;;;;54.47;22.00;;;1.70;99.90;;;-0.07;100.00;101030.00;4874395;28;20513;-77
2023/01/20 08:18:31;;;;;;;53.28;22.02;;;1.70;99.90;;;-0.04;100.00;101046.41;4912386;28;20090;-77
2023/01/20 08:20:57;;;;;;;57.85;22.33;;;1.70;99.90;;;-0.02;100.00;101052.44;4865553;29;20107;-76
2023/01/20 08:23:23;;;;;;;51.30;22.17;;;1.70;99.90;;;0.07;100.00;101056.78;4910808;29;20056;-76
2023/01/20 08:25:58;;;;;;;56.25;23.35;;;1.70;99.90;;;0.10;100.00;101064.53;4901767;28;20028;-77
2023/01/20 08:28:25;;;;;;;51.22;22.65;;;1.70;99.90;;;0.03;100.00;101070.56;4868771;28;20118;-76
2023/01/20 08:30:51;;;;;;;48.03;22.23;;;1.70;99.90;;;0.04;100.00;101077.47;4874017;29;20460;-76
2023/01/20 08:33:17;;;;;;;53.50;21.80;;;1.80;99.90;;;0.08;100.00;101074.03;4881413;28;20040;-77
2023/01/20 08:35:43;;;;;;;43.38;21.13;;;1.80;99.90;;;-0.06;100.00;101075.75;4913382;28;20046;-75
2023/01/20 08:38:11;;;;;;;54.47;22.23;;;1.70;99.90;;;0.01;100.00;101085.25;4883263;28;20079;-76
2023/01/20 08:40:41;;;;;;;54.53;23.00;;;1.70;99.90;;;0.09;100.00;101086.13;4875532;28;20033;-77
2023/01/20 08:43:07;;;;;;;57.72;24.00;;;1.70;99.90;;;0.10;100.00;101085.25;4853459;29;20464;-75
2023/01/20 08:45:33;;;;;;;53.58;22.30;;;1.80;99.90;;;0.07;100.00;101085.25;4897580;28;20059;-77
2023/01/20 08:48:06;;;;;;;50.80;22.25;;;1.80;99.90;;;0.04;100.00;101094.72;4887497;28;20086;-76
2023/01/20 08:50:32;;;;;;;56.30;22.73;;;1.80;99.90;;;0.03;100.00;101099.06;4916195;28;20052;-77
2023/01/20 08:52:58;;;;;;;56.63;24.08;;;1.80;99.90;;;0.03;100.00;101095.63;4904617;28;20050;-77
2023/01/20 08:55:23;;;;;;;55.97;24.13;;;1.80;99.90;;;0.09;100.00;101099.06;4918806;28;20159;-77
2023/01/20 08:57:49;;;;;;;59.63;22.60;;;1.80;99.90;;;0.05;100.00;101096.47;4893206;28;20463;-76
2023/01/20 09:00:19;;;;;;;48.45;22.98;;;1.80;99.90;;;0.03;100.00;101099.06;4866949;28;20121;-76
2023/01/20 09:02:45;;;;;;;54.30;23.52;;;1.80;99.90;;;0.11;100.00;101107.72;4898449;28;20113;-77
2023/01/20 09:05:11;;;;;;;51.92;22.75;;;1.80;99.90;;;0.14;100.00;101110.31;4870912;28;20826;-76
2023/01/20 09:07:50;;;;;;;53.92;23.33;;;1.80;99.90;;;0.14;100.00;101110.31;4882282;28;20091;-78
2023/01/20 09:10:17;;;;;;;54.92;24.02;;;1.80;99.90;;;0.19;100.00;101120.66;4862283;29;20112;-76
2023/01/20 09:12:43;;;;;;;56.08;24.58;;;1.80;99.90;;;0.17;100.00;101118.09;4859546;28;20050;-77
2023/01/20 09:15:10;;;;;;;53.90;24.88;;;1.90;99.90;;;0.19;100.00;101118.97;4906667;28;20031;-77
2023/01/20 09:17:41;;;;;;;54.00;23.55;;;1.90;99.90;;;0.23;100.00;101125.00;4897722;28;20378;-76
2023/01/20 09:20:11;;;;;;;55.95;23.30;;;1.90;99.90;;;0.21;100.00;101124.13;4897167;28;20095;-77
2023/01/20 09:22:42;;;;;;;53.88;23.55;;;1.90;99.90;;;0.24;100.00;101128.44;4893817;29;20043;-78
2023/01/20 09:25:13;;;;;;;53.08;23.58;;;1.90;99.90;;;0.19;100.00;101131.03;4889228;29;20024;-77
2023/01/20 09:27:45;;;;;;;68.28;25.13;;;1.90;99.90;;;0.27;100.00;101137.09;4854657;28;20037;-77
2023/01/20 09:30:14;;;;;;;51.95;24.38;;;1.90;99.90;;;0.32;100.00;101126.75;4886434;28;20456;-78
2023/01/20 09:32:43;;;;;;;47.83;22.98;;;2.00;99.90;;;0.30;100.00;101128.47;4920830;28;20048;-77
2023/01/20 09:35:17;;;;;;;56.67;22.75;;;2.00;99.90;;;0.34;100.00;101131.06;4902502;29;20047;-76
2023/01/20 09:44:22;;;;;;;60.75;24.15;;;2.10;99.90;;;0.48;100.00;101138.00;4881368;28;20068;-77
2023/01/20 09:47:18;;;;;;;56.72;23.05;;;2.10;99.90;;;0.53;100.00;101144.06;4911384;28;20042;-77
2023/01/20 09:53:59;;;;;;;54.40;24.55;;;2.20;99.90;;;0.54;100.00;101146.66;4907395;29;20115;-79
2023/01/20 09:56:37;;;;;;;53.50;22.77;;;2.20;99.90;;;0.60;100.00;101143.19;4888473;29;20039;-78
2023/01/20 09:59:35;;;;;;;52.55;22.73;;;2.20;99.90;;;0.64;99.92;101152.69;4920408;28;20622;-77
2023/01/20 10:02:27;;;;;;;46.03;21.50;;;2.20;99.90;;;0.63;99.79;101153.56;4918518;29;20044;-78
2023/01/20 10:05:08;;;;;;;54.70;24.15;;;2.30;99.90;;;0.63;99.76;101157.88;4925448;29;20031;-78
2023/01/20 10:08:09;;;;;;;55.58;24.13;;;2.30;99.90;;;0.67;99.42;101164.78;4892867;28;20050;-79
2023/01/20 10:10:48;;;;;;;55.38;22.38;;;2.30;99.90;;;0.68;99.07;101158.75;4899276;28;20036;-79
2023/01/20 10:13:46;;;;;;;58.95;23.33;;;2.30;99.90;;;0.69;99.53;101165.66;4884849;29;20477;-79
2023/01/20 10:16:32;;;;;;;47.60;22.65;;;2.30;99.90;;;0.74;99.54;101162.22;4916430;28;20036;-78
2023/01/20 10:19:33;;;;;;;53.80;22.13;;;2.40;99.90;;;0.81;99.09;101155.31;4871574;29;20036;-78
2023/01/20 10:22:21;;;;;;;52.63;22.42;;;2.40;99.90;;;0.89;98.74;101153.59;4929154;28;20036;-78
2023/01/20 10:25:12;;;;;;;58.38;24.20;;;2.40;99.90;;;0.89;98.50;101163.97;4895657;28;20043;-78
2023/01/20 10:28:06;;;;;;;51.40;22.95;;;2.50;99.90;;;0.94;98.39;101162.22;4906163;28;20047;-79